createdAt,value
2018-04-10T00:00:03.479Z,0
2018-04-10T00:01:03.473Z,0
2018-04-10T00:02:03.207Z,0
2018-04-10T00:03:02.939Z,0
2018-04-10T00:04:03.439Z,0
2018-04-10T00:05:03.173Z,0
2018-04-10T00:06:03.412Z,0
2018-04-10T00:07:02.907Z,0
2018-04-10T00:08:03.147Z,0
2018-04-10T00:09:03.136Z,0
2018-04-10T00:10:03.381Z,0
2018-04-10T00:11:03.110Z,0
2018-04-10T00:12:03.100Z,0
2018-04-10T00:13:03.090Z,0
2018-04-10T00:14:03.078Z,0
2018-04-10T00:15:03.065Z,0
2018-04-10T00:16:03.315Z,0
2018-04-10T00:17:02.533Z,0
2018-04-10T00:18:03.043Z,0
2018-04-10T00:19:02.771Z,0
2018-04-10T00:20:03.016Z,0
2018-04-10T00:21:03.008Z,0
2018-04-10T00:22:02.993Z,0
2018-04-10T00:23:03.240Z,0
2018-04-10T00:24:02.977Z,0
2018-04-10T00:25:02.705Z,0
2018-04-10T00:26:02.695Z,0
2018-04-10T00:27:02.941Z,0
2018-04-10T00:28:03.184Z,0
2018-04-10T00:29:02.661Z,0
2018-04-10T00:30:02.950Z,0
2018-04-10T00:31:02.642Z,0
2018-04-10T00:32:02.631Z,0
2018-04-10T00:33:02.883Z,0
2018-04-10T00:34:02.863Z,0
2018-04-10T00:35:02.852Z,0
2018-04-10T00:36:02.594Z,0
2018-04-10T00:37:03.094Z,0
2018-04-10T00:38:02.830Z,0
2018-04-10T00:39:03.062Z,0
2018-04-10T00:40:03.052Z,0
2018-04-10T00:41:03.049Z,0
2018-04-10T00:42:03.036Z,0
2018-04-10T00:43:02.768Z,0
2018-04-10T00:44:02.500Z,0
2018-04-10T00:45:02.751Z,0
2018-04-10T00:46:02.736Z,0
2018-04-10T00:47:02.727Z,0
2018-04-10T00:48:02.748Z,0
2018-04-10T00:49:02.704Z,0
2018-04-10T00:50:02.943Z,0
2018-04-10T00:51:02.677Z,0
2018-04-10T00:52:02.415Z,0
2018-04-10T00:53:02.656Z,0
2018-04-10T00:54:02.133Z,0
2018-04-10T00:55:02.887Z,0
2018-04-10T00:56:02.624Z,0
2018-04-10T00:57:02.358Z,0
2018-04-10T00:58:02.872Z,0
2018-04-10T00:59:02.595Z,0
2018-04-10T01:00:02.335Z,0
2018-04-10T01:01:02.568Z,0
2018-04-10T01:02:02.555Z,0
2018-04-10T01:03:02.805Z,0
2018-04-10T01:04:02.276Z,0
2018-04-10T01:05:02.820Z,0
2018-04-10T01:06:02.257Z,0
2018-04-10T01:07:02.509Z,0
2018-04-10T01:08:02.236Z,0
2018-04-10T01:09:01.979Z,0
2018-04-10T01:10:02.472Z,0
2018-04-10T01:11:02.460Z,0
2018-04-10T01:12:02.708Z,0
2018-04-10T01:13:02.689Z,0
2018-04-10T01:14:02.681Z,0
2018-04-10T01:15:02.416Z,0
2018-04-10T01:16:02.406Z,0
2018-04-10T01:17:02.137Z,0
2018-04-10T01:18:02.381Z,0
2018-04-10T01:19:02.368Z,0
2018-04-10T01:20:02.361Z,0
2018-04-10T01:21:02.611Z,0
2018-04-10T01:22:02.078Z,0
2018-04-10T01:23:02.581Z,0
2018-04-10T01:24:02.056Z,0
2018-04-10T01:25:02.302Z,0
2018-04-10T01:26:01.776Z,0
2018-04-10T01:27:02.538Z,0
2018-04-10T01:28:02.276Z,0
2018-04-10T01:29:02.258Z,0
2018-04-10T01:30:01.984Z,0
2018-04-10T01:31:02.229Z,0
2018-04-10T01:32:01.966Z,0
2018-04-10T01:33:02.210Z,0
2018-04-10T01:34:02.197Z,0
2018-04-10T01:35:01.934Z,0
2018-04-10T01:36:02.178Z,0
2018-04-10T01:37:02.176Z,0
2018-04-10T01:38:02.409Z,0
2018-04-10T01:39:02.401Z,0
2018-04-10T01:40:02.391Z,0
2018-04-10T01:41:01.607Z,0
2018-04-10T01:42:02.368Z,0
2018-04-10T01:43:02.096Z,0
2018-04-10T01:44:02.080Z,0
2018-04-10T01:45:01.826Z,0
2018-04-10T01:46:02.323Z,0
2018-04-10T01:47:02.052Z,0
2018-04-10T01:48:02.298Z,0
2018-04-10T01:49:02.028Z,0
2018-04-10T01:50:02.013Z,0
2018-04-10T01:51:02.265Z,0
2018-04-10T01:52:02.255Z,0
2018-04-10T01:53:01.985Z,0
2018-04-10T01:54:01.972Z,0
2018-04-10T01:55:01.707Z,0
2018-04-10T01:56:02.203Z,0
2018-04-10T01:57:01.936Z,0
2018-04-10T01:58:02.177Z,0
2018-04-10T01:59:01.910Z,0
2018-04-10T02:00:01.642Z,0
2018-04-10T02:01:01.632Z,0
2018-04-10T02:02:02.133Z,0
2018-04-10T02:03:02.126Z,0
2018-04-10T02:04:01.596Z,0
2018-04-10T02:05:01.589Z,0
2018-04-10T02:06:02.082Z,0
2018-04-10T02:07:01.562Z,0
2018-04-10T02:08:01.546Z,0
2018-04-10T02:09:01.790Z,0
2018-04-10T02:10:02.039Z,0
2018-04-10T02:11:02.032Z,0
2018-04-10T02:12:02.013Z,0
2018-04-10T02:13:01.746Z,0
2018-04-10T02:14:01.227Z,0
2018-04-10T02:15:01.727Z,0
2018-04-10T02:16:01.712Z,0
2018-04-10T02:17:01.703Z,0
2018-04-10T02:18:01.687Z,0
2018-04-10T02:19:01.686Z,0
2018-04-10T02:20:01.921Z,0
2018-04-10T02:21:01.913Z,0
2018-04-10T02:22:01.645Z,0
2018-04-10T02:23:01.630Z,0
2018-04-10T02:24:01.877Z,0
2018-04-10T02:25:01.869Z,0
2018-04-10T02:26:01.855Z,0
2018-04-10T02:27:01.327Z,0
2018-04-10T02:28:01.830Z,0
2018-04-10T02:29:01.559Z,0
2018-04-10T02:30:01.547Z,0
2018-04-10T02:31:01.803Z,0
2018-04-10T02:32:01.265Z,0
2018-04-10T02:33:01.507Z,0
2018-04-10T02:34:01.754Z,0
2018-04-10T02:35:01.494Z,0
2018-04-10T02:36:01.485Z,0
2018-04-10T02:37:01.468Z,0
2018-04-10T02:38:01.716Z,0
2018-04-10T02:39:01.446Z,0
2018-04-10T02:40:00.927Z,0
2018-04-10T02:41:01.687Z,0
2018-04-10T02:42:01.671Z,0
2018-04-10T02:43:01.392Z,0
2018-04-10T02:44:01.655Z,0
2018-04-10T02:45:01.117Z,0
2018-04-10T02:46:01.364Z,0
2018-04-10T02:47:01.603Z,0
2018-04-10T02:48:01.346Z,0
2018-04-10T02:49:01.324Z,0
2018-04-10T02:50:01.062Z,0
2018-04-10T02:51:01.304Z,0
2018-04-10T02:52:01.288Z,0
2018-04-10T02:53:01.534Z,0
2018-04-10T02:54:01.270Z,0
2018-04-10T02:55:00.995Z,0
2018-04-10T02:56:00.984Z,0
2018-04-10T02:57:01.232Z,0
2018-04-10T02:58:00.974Z,0
2018-04-10T02:59:01.212Z,0
2018-04-10T03:00:01.453Z,0
2018-04-10T03:01:01.182Z,0
2018-04-10T03:02:01.168Z,0
2018-04-10T03:03:01.418Z,0
2018-04-10T03:04:01.402Z,0
2018-04-10T03:05:01.394Z,0
2018-04-10T03:06:01.119Z,0
2018-04-10T03:07:01.108Z,0
2018-04-10T03:08:00.840Z,0
2018-04-10T03:09:00.830Z,0
2018-04-10T03:10:00.812Z,0
2018-04-10T03:11:01.327Z,0
2018-04-10T03:12:01.049Z,0
2018-04-10T03:13:00.781Z,0
2018-04-10T03:14:00.772Z,0
2018-04-10T03:15:01.013Z,0
2018-04-10T03:16:01.258Z,0
2018-04-10T03:17:01.245Z,0
2018-04-10T03:18:01.233Z,0
2018-04-10T03:19:00.962Z,0
2018-04-10T03:20:00.955Z,0
2018-04-10T03:21:00.944Z,0
2018-04-10T03:22:01.182Z,0
2018-04-10T03:23:00.916Z,0
2018-04-10T03:24:00.910Z,0
2018-04-10T03:25:00.898Z,0
2018-04-10T03:26:01.138Z,0
2018-04-10T03:27:01.123Z,0
2018-04-10T03:28:00.602Z,0
2018-04-10T03:29:01.169Z,0
2018-04-10T03:30:00.841Z,0
2018-04-10T03:31:01.079Z,0
2018-04-10T03:32:00.807Z,0
2018-04-10T03:33:00.796Z,0
2018-04-10T03:34:00.528Z,0
2018-04-10T03:35:00.781Z,0
2018-04-10T03:36:00.771Z,0
2018-04-10T03:37:00.492Z,0
2018-04-10T03:38:00.741Z,0
2018-04-10T03:39:00.213Z,0
2018-04-10T03:40:00.969Z,0
2018-04-10T03:41:00.700Z,0
2018-04-10T03:42:00.949Z,0
2018-04-10T03:43:00.932Z,0
2018-04-10T03:44:00.671Z,0
2018-04-10T03:45:00.394Z,0
2018-04-10T03:46:00.384Z,0
2018-04-10T03:47:00.627Z,0
2018-04-10T03:48:00.456Z,0
2018-04-10T03:49:00.859Z,0
2018-04-10T03:50:00.081Z,0
2018-04-10T03:51:00.841Z,0
2018-04-10T03:52:00.563Z,0
2018-04-10T03:53:00.816Z,0
2018-04-10T03:54:00.545Z,0
2018-04-10T03:55:00.786Z,0
2018-04-10T03:56:00.524Z,0
2018-04-10T03:57:00.512Z,4
2018-04-10T03:58:00.497Z,4
2018-04-10T03:59:00.482Z,0
2018-04-10T04:00:00.734Z,4
2018-04-10T04:01:00.457Z,4
2018-04-10T04:02:00.702Z,4
2018-04-10T04:03:00.694Z,4
2018-04-10T04:04:00.680Z,8
2018-04-10T04:04:59.899Z,8
2018-04-10T04:06:00.399Z,8
2018-04-10T04:07:00.391Z,12
2018-04-10T04:08:00.119Z,12
2018-04-10T04:09:00.512Z,16
2018-04-10T04:10:00.350Z,16
2018-04-10T04:11:00.598Z,20
2018-04-10T04:12:00.581Z,24
2018-04-10T04:13:00.316Z,28
2018-04-10T04:14:00.047Z,32
2018-04-10T04:15:00.545Z,36
2018-04-10T04:16:00.042Z,40
2018-04-10T04:17:00.268Z,48
2018-04-10T04:18:00.255Z,56
2018-04-10T04:18:59.987Z,64
2018-04-10T04:20:00.227Z,72
2018-04-10T04:20:59.965Z,84
2018-04-10T04:22:00.462Z,92
2018-04-10T04:23:00.197Z,104
2018-04-10T04:23:59.926Z,112
2018-04-10T04:25:00.170Z,128
2018-04-10T04:25:59.954Z,144
2018-04-10T04:27:00.406Z,156
2018-04-10T04:28:00.136Z,172
2018-04-10T04:29:00.379Z,192
2018-04-10T04:30:00.116Z,208
2018-04-10T04:31:00.100Z,228
2018-04-10T04:32:00.087Z,248
2018-04-10T04:33:00.079Z,268
2018-04-10T04:34:00.319Z,292
2018-04-10T04:35:00.310Z,316
2018-04-10T04:35:59.780Z,344
2018-04-10T04:37:00.025Z,368
2018-04-10T04:38:00.018Z,396
2018-04-10T04:39:00.267Z,424
2018-04-10T04:40:00.249Z,456
2018-04-10T04:40:59.975Z,484
2018-04-10T04:41:59.451Z,516
2018-04-10T04:42:59.950Z,552
2018-04-10T04:43:59.682Z,584
2018-04-10T04:45:00.185Z,616
2018-04-10T04:46:00.173Z,652
2018-04-10T04:47:00.158Z,688
2018-04-10T04:47:59.634Z,720
2018-04-10T04:48:59.879Z,752
2018-04-10T04:50:00.132Z,788
2018-04-10T04:50:59.603Z,824
2018-04-10T04:51:59.849Z,856
2018-04-10T04:52:59.837Z,892
2018-04-10T04:54:00.071Z,928
2018-04-10T04:54:59.805Z,964
2018-04-10T04:56:00.050Z,996
2018-04-10T04:57:00.039Z,1028
2018-04-10T04:57:59.513Z,1068
2018-04-10T04:58:59.758Z,1100
2018-04-10T04:59:59.758Z,1136
2018-04-10T05:00:59.732Z,1168
2018-04-10T05:01:59.987Z,1204
2018-04-10T05:02:59.708Z,1236
2018-04-10T05:03:59.438Z,1268
2018-04-10T05:04:59.948Z,1300
2018-04-10T05:05:59.927Z,1336
2018-04-10T05:06:59.919Z,1368
2018-04-10T05:07:59.651Z,1400
2018-04-10T05:08:59.378Z,1428
2018-04-10T05:09:59.630Z,1460
2018-04-10T05:10:59.872Z,1492
2018-04-10T05:11:59.856Z,1524
2018-04-10T05:12:59.333Z,1556
2018-04-10T05:13:59.836Z,1588
2018-04-10T05:14:59.824Z,1616
2018-04-10T05:15:59.299Z,1644
2018-04-10T05:16:59.584Z,1672
2018-04-10T05:17:59.535Z,1700
2018-04-10T05:18:59.517Z,1732
2018-04-10T05:19:59.768Z,1760
2018-04-10T05:20:59.495Z,1788
2018-04-10T05:21:59.488Z,1812
2018-04-10T05:22:59.256Z,1840
2018-04-10T05:23:59.713Z,1868
2018-04-10T05:24:59.706Z,1896
2018-04-10T05:25:59.437Z,1924
2018-04-10T05:26:59.450Z,1948
2018-04-10T05:27:59.162Z,1976
2018-04-10T05:28:59.404Z,2008
2018-04-10T05:29:59.813Z,2036
2018-04-10T05:30:59.380Z,2064
2018-04-10T05:31:59.365Z,2088
2018-04-10T05:32:59.619Z,2116
2018-04-10T05:33:59.345Z,2144
2018-04-10T05:34:59.079Z,2172
2018-04-10T05:35:59.329Z,2204
2018-04-10T05:36:58.796Z,2232
2018-04-10T05:37:59.307Z,2264
2018-04-10T05:38:59.547Z,2284
2018-04-10T05:39:59.272Z,2300
2018-04-10T05:40:59.265Z,2324
2018-04-10T05:41:59.548Z,2344
2018-04-10T05:42:58.988Z,2368
2018-04-10T05:43:59.234Z,2396
2018-04-10T05:44:58.968Z,2416
2018-04-10T05:45:59.205Z,2440
2018-04-10T05:46:59.203Z,2460
2018-04-10T05:47:59.189Z,2484
2018-04-10T05:48:59.174Z,2508
2018-04-10T05:49:59.162Z,2536
2018-04-10T05:50:59.152Z,2556
2018-04-10T05:51:58.882Z,2576
2018-04-10T05:52:59.386Z,2600
2018-04-10T05:53:59.378Z,2616
2018-04-10T05:54:59.362Z,2636
2018-04-10T05:55:59.350Z,2660
2018-04-10T05:56:59.084Z,2680
2018-04-10T05:57:59.076Z,2692
2018-04-10T05:58:59.323Z,2708
2018-04-10T05:59:59.313Z,2724
2018-04-10T06:00:58.531Z,2744
2018-04-10T06:01:58.779Z,2764
2018-04-10T06:02:59.276Z,2784
2018-04-10T06:03:59.079Z,2808
2018-04-10T06:04:58.995Z,2824
2018-04-10T06:05:58.987Z,2844
2018-04-10T06:06:58.976Z,2868
2018-04-10T06:07:58.965Z,2880
2018-04-10T06:08:59.207Z,2892
2018-04-10T06:09:59.030Z,2912
2018-04-10T06:10:58.932Z,2936
2018-04-10T06:11:58.921Z,2964
2018-04-10T06:12:58.910Z,2968
2018-04-10T06:13:58.903Z,2980
2018-04-10T06:14:58.637Z,3000
2018-04-10T06:15:58.933Z,3016
2018-04-10T06:16:58.609Z,3040
2018-04-10T06:17:59.118Z,3060
2018-04-10T06:18:58.589Z,3076
2018-04-10T06:19:59.093Z,3092
2018-04-10T06:20:58.832Z,3124
2018-04-10T06:21:58.561Z,3156
2018-04-10T06:22:58.812Z,3164
2018-04-10T06:23:59.057Z,3180
2018-04-10T06:24:59.041Z,3192
2018-04-10T06:25:58.522Z,3208
2018-04-10T06:26:59.038Z,3240
2018-04-10T06:27:59.011Z,3264
2018-04-10T06:28:59.003Z,3312
2018-04-10T06:29:58.995Z,3376
2018-04-10T06:30:58.728Z,3404
2018-04-10T06:31:58.971Z,3360
2018-04-10T06:32:58.728Z,3380
2018-04-10T06:33:58.968Z,3460
2018-04-10T06:34:58.695Z,3760
2018-04-10T06:35:58.418Z,4316
2018-04-10T06:36:58.931Z,5236
2018-04-10T06:37:58.920Z,5532
2018-04-10T06:38:58.391Z,5248
2018-04-10T06:39:58.652Z,5520
2018-04-10T06:40:58.376Z,6240
2018-04-10T06:41:58.877Z,6204
2018-04-10T06:42:58.608Z,6608
2018-04-10T06:43:58.869Z,6528
2018-04-10T06:44:58.853Z,6748
2018-04-10T06:45:58.588Z,7212
2018-04-10T06:46:58.837Z,7132
2018-04-10T06:47:58.830Z,7480
2018-04-10T06:48:58.304Z,7768
2018-04-10T06:49:58.295Z,7844
2018-04-10T06:50:58.810Z,8392
2018-04-10T06:51:58.805Z,9212
2018-04-10T06:52:58.646Z,9612
2018-04-10T06:53:58.270Z,9540
2018-04-10T06:54:58.008Z,9604
2018-04-10T06:55:58.514Z,10024
2018-04-10T06:56:58.254Z,10184
2018-04-10T06:57:58.246Z,9544
2018-04-10T06:58:58.243Z,8680
2018-04-10T06:59:58.240Z,7392
2018-04-10T07:00:58.748Z,5992
2018-04-10T07:01:58.753Z,5276
2018-04-10T07:02:58.746Z,4996
2018-04-10T07:03:58.488Z,4804
2018-04-10T07:04:58.738Z,4672
2018-04-10T07:05:58.215Z,4576
2018-04-10T07:06:58.732Z,4512
2018-04-10T07:07:58.896Z,4460
2018-04-10T07:08:58.480Z,4412
2018-04-10T07:09:58.213Z,4364
2018-04-10T07:10:58.466Z,4324
2018-04-10T07:11:58.208Z,4288
2018-04-10T07:12:58.716Z,4264
2018-04-10T07:13:58.467Z,4248
2018-04-10T07:14:58.460Z,4240
2018-04-10T07:15:58.462Z,4240
2018-04-10T07:16:58.459Z,4240
2018-04-10T07:17:58.756Z,4244
2018-04-10T07:18:58.459Z,4244
2018-04-10T07:19:57.940Z,4244
2018-04-10T07:20:58.282Z,4244
2018-04-10T07:21:58.712Z,4244
2018-04-10T07:22:58.707Z,4248
2018-04-10T07:23:58.710Z,4248
2018-04-10T07:24:58.449Z,4248
2018-04-10T07:25:58.706Z,4252
2018-04-10T07:26:58.452Z,4248
2018-04-10T07:27:58.448Z,4248
2018-04-10T07:28:58.707Z,4240
2018-04-10T07:29:58.191Z,4240
2018-04-10T07:30:58.700Z,4232
2018-04-10T07:31:58.443Z,4220
2018-04-10T07:32:58.696Z,4216
2018-04-10T07:33:57.930Z,4216
2018-04-10T07:34:58.441Z,4216
2018-04-10T07:35:58.441Z,4220
2018-04-10T07:36:58.447Z,4220
2018-04-10T07:37:58.702Z,4224
2018-04-10T07:38:58.435Z,4224
2018-04-10T07:39:58.513Z,4228
2018-04-10T07:40:58.529Z,4228
2018-04-10T07:41:58.691Z,4232
2018-04-10T07:42:58.175Z,4240
2018-04-10T07:43:58.426Z,4252
2018-04-10T07:44:58.679Z,4268
2018-04-10T07:45:58.424Z,4284
2018-04-10T07:46:58.681Z,4304
2018-04-10T07:47:58.674Z,4312
2018-04-10T07:48:58.169Z,4328
2018-04-10T07:49:58.671Z,4348
2018-04-10T07:50:58.668Z,4360
2018-04-10T07:51:58.409Z,4368
2018-04-10T07:52:58.407Z,4380
2018-04-10T07:53:58.402Z,4380
2018-04-10T07:54:58.660Z,4376
2018-04-10T07:55:58.399Z,4368
2018-04-10T07:56:58.401Z,4364
2018-04-10T07:57:58.401Z,4356
2018-04-10T07:58:57.890Z,4356
2018-04-10T07:59:58.388Z,4348
2018-04-10T08:00:58.805Z,4344
2018-04-10T08:01:58.395Z,4344
2018-04-10T08:02:58.660Z,4344
2018-04-10T08:03:58.127Z,4336
2018-04-10T08:04:58.649Z,4328
2018-04-10T08:05:58.384Z,4328
2018-04-10T08:06:58.407Z,4324
2018-04-10T08:07:57.857Z,4328
2018-04-10T08:08:58.635Z,4328
2018-04-10T08:09:58.371Z,4332
2018-04-10T08:10:58.372Z,4328
2018-04-10T08:11:58.628Z,4332
2018-04-10T08:12:58.624Z,4332
2018-04-10T08:13:58.362Z,4336
2018-04-10T08:14:58.716Z,4336
2018-04-10T08:15:58.364Z,4332
2018-04-10T08:16:58.613Z,4328
2018-04-10T08:17:58.348Z,4324
2018-04-10T08:18:58.095Z,4320
2018-04-10T08:19:58.350Z,4324
2018-04-10T08:20:58.605Z,4324
2018-04-10T08:21:58.605Z,4324
2018-04-10T08:22:58.345Z,4324
2018-04-10T08:23:58.602Z,4328
2018-04-10T08:24:58.344Z,4316
2018-04-10T08:25:58.595Z,4316
2018-04-10T08:26:58.341Z,4304
2018-04-10T08:27:58.334Z,4300
2018-04-10T08:28:58.080Z,4292
2018-04-10T08:29:58.595Z,4284
2018-04-10T08:30:58.587Z,4284
2018-04-10T08:31:58.331Z,4288
2018-04-10T08:32:58.581Z,4284
2018-04-10T08:33:58.321Z,4280
2018-04-10T08:34:58.321Z,4280
2018-04-10T08:35:58.322Z,4280
2018-04-10T08:36:58.315Z,4284
2018-04-10T08:37:58.430Z,4280
2018-04-10T08:38:58.310Z,4280
2018-04-10T08:39:58.312Z,4272
2018-04-10T08:40:58.569Z,4272
2018-04-10T08:41:58.308Z,4272
2018-04-10T08:42:57.793Z,4264
2018-04-10T08:43:58.048Z,4264
2018-04-10T08:44:58.323Z,4260
2018-04-10T08:45:58.046Z,4252
2018-04-10T08:46:58.555Z,4244
2018-04-10T08:47:58.042Z,4232
2018-04-10T08:48:58.551Z,4224
2018-04-10T08:49:57.779Z,4212
2018-04-10T08:50:58.033Z,4204
2018-04-10T08:51:58.287Z,4200
2018-04-10T08:52:58.545Z,4196
2018-04-10T08:53:58.550Z,4188
2018-04-10T08:54:58.283Z,4180
2018-04-10T08:55:58.281Z,4180
2018-04-10T08:56:58.285Z,4180
2018-04-10T08:57:58.286Z,4184
2018-04-10T08:58:58.292Z,4188
2018-04-10T08:59:57.761Z,4192
2018-04-10T09:00:58.277Z,4188
2018-04-10T09:01:58.273Z,4180
2018-04-10T09:02:58.532Z,4176
2018-04-10T09:03:58.524Z,4172
2018-04-10T09:04:58.528Z,4168
2018-04-10T09:05:58.270Z,4168
2018-04-10T09:06:58.521Z,4168
2018-04-10T09:07:58.519Z,4164
2018-04-10T09:08:58.260Z,4156
2018-04-10T09:09:58.266Z,4148
2018-04-10T09:10:58.258Z,4140
2018-04-10T09:11:58.268Z,4128
2018-04-10T09:12:58.259Z,4116
2018-04-10T09:13:58.001Z,4108
2018-04-10T09:14:58.256Z,4112
2018-04-10T09:15:58.516Z,4120
2018-04-10T09:16:58.254Z,4124
2018-04-10T09:17:58.251Z,4112
2018-04-10T09:18:58.502Z,4112
2018-04-10T09:19:58.505Z,4104
2018-04-10T09:20:58.506Z,4104
2018-04-10T09:21:58.573Z,4100
2018-04-10T09:22:58.249Z,4104
2018-04-10T09:23:57.983Z,4100
2018-04-10T09:24:58.245Z,4100
2018-04-10T09:25:58.512Z,4088
2018-04-10T09:26:58.500Z,4080
2018-04-10T09:27:58.241Z,4072
2018-04-10T09:28:57.985Z,4064
2018-04-10T09:29:58.238Z,4068
2018-04-10T09:30:58.495Z,4064
2018-04-10T09:31:58.501Z,4060
2018-04-10T09:32:58.241Z,4056
2018-04-10T09:33:58.237Z,4056
2018-04-10T09:34:58.244Z,4056
2018-04-10T09:35:58.603Z,4060
2018-04-10T09:36:58.501Z,4064
2018-04-10T09:37:57.975Z,4064
2018-04-10T09:38:58.226Z,4052
2018-04-10T09:39:58.231Z,4040
2018-04-10T09:40:58.482Z,4024
2018-04-10T09:41:58.224Z,4016
2018-04-10T09:42:58.479Z,3996
2018-04-10T09:43:57.969Z,3984
2018-04-10T09:44:57.711Z,3964
2018-04-10T09:45:58.486Z,3960
2018-04-10T09:46:58.490Z,3948
2018-04-10T09:47:58.228Z,3928
2018-04-10T09:48:58.481Z,3908
2018-04-10T09:49:58.221Z,3884
2018-04-10T09:50:58.239Z,3884
2018-04-10T09:51:58.224Z,3872
2018-04-10T09:52:58.476Z,3864
2018-04-10T09:53:58.222Z,3844
2018-04-10T09:54:58.477Z,3820
2018-04-10T09:55:57.705Z,3800
2018-04-10T09:56:57.958Z,3784
2018-04-10T09:57:58.251Z,3776
2018-04-10T09:58:58.479Z,3760
2018-04-10T09:59:58.236Z,3744
2018-04-10T10:00:58.477Z,3728
2018-04-10T10:01:58.211Z,3716
2018-04-10T10:02:58.223Z,3708
2018-04-10T10:03:58.213Z,3700
2018-04-10T10:04:58.214Z,3680
2018-04-10T10:05:58.216Z,3668
2018-04-10T10:06:58.212Z,3652
2018-04-10T10:07:58.211Z,3648
2018-04-10T10:08:58.465Z,3648
2018-04-10T10:09:57.969Z,3656
2018-04-10T10:10:58.209Z,3668
2018-04-10T10:11:58.206Z,3668
2018-04-10T10:12:58.291Z,3652
2018-04-10T10:13:58.209Z,3636
2018-04-10T10:14:58.355Z,3628
2018-04-10T10:15:57.693Z,3616
2018-04-10T10:16:58.468Z,3604
2018-04-10T10:17:58.469Z,3604
2018-04-10T10:18:58.460Z,3612
2018-04-10T10:19:58.531Z,3616
2018-04-10T10:20:57.944Z,3628
2018-04-10T10:21:57.693Z,3628
2018-04-10T10:22:58.204Z,3628
2018-04-10T10:23:58.221Z,3628
2018-04-10T10:24:58.459Z,3628
2018-04-10T10:25:58.499Z,3620
2018-04-10T10:26:58.456Z,3620
2018-04-10T10:27:58.457Z,3612
2018-04-10T10:28:58.205Z,3612
2018-04-10T10:29:58.463Z,3600
2018-04-10T10:30:58.210Z,3592
2018-04-10T10:31:58.201Z,3572
2018-04-10T10:32:58.484Z,3556
2018-04-10T10:33:58.465Z,3544
2018-04-10T10:34:58.211Z,3536
2018-04-10T10:35:58.463Z,3528
2018-04-10T10:36:58.455Z,3524
2018-04-10T10:37:58.202Z,3524
2018-04-10T10:38:58.197Z,3516
2018-04-10T10:39:58.455Z,3512
2018-04-10T10:40:58.211Z,3504
2018-04-10T10:41:58.203Z,3488
2018-04-10T10:42:58.201Z,3480
2018-04-10T10:43:58.455Z,3460
2018-04-10T10:44:58.196Z,3444
2018-04-10T10:45:58.457Z,3440
2018-04-10T10:46:58.609Z,3432
2018-04-10T10:47:58.453Z,3424
2018-04-10T10:48:58.473Z,3412
2018-04-10T10:49:57.942Z,3408
2018-04-10T10:50:58.459Z,3404
2018-04-10T10:51:57.939Z,3400
2018-04-10T10:52:58.460Z,3396
2018-04-10T10:53:58.198Z,3392
2018-04-10T10:54:58.232Z,3388
2018-04-10T10:55:58.454Z,3388
2018-04-10T10:56:58.197Z,3380
2018-04-10T10:57:58.454Z,3376
2018-04-10T10:58:58.197Z,3372
2018-04-10T10:59:58.196Z,3368
2018-04-10T11:00:58.469Z,3368
2018-04-10T11:01:58.193Z,3364
2018-04-10T11:02:58.229Z,3368
2018-04-10T11:03:58.455Z,3368
2018-04-10T11:04:58.451Z,3368
2018-04-10T11:05:58.450Z,3368
2018-04-10T11:06:58.458Z,3368
2018-04-10T11:07:58.005Z,3368
2018-04-10T11:08:58.192Z,3372
2018-04-10T11:09:58.196Z,3376
2018-04-10T11:10:58.233Z,3380
2018-04-10T11:11:58.203Z,3376
2018-04-10T11:12:58.490Z,3416
2018-04-10T11:13:58.199Z,3400
2018-04-10T11:14:57.935Z,3380
2018-04-10T11:15:58.445Z,3388
2018-04-10T11:16:57.931Z,3376
2018-04-10T11:17:58.190Z,3332
2018-04-10T11:18:58.448Z,3420
2018-04-10T11:19:58.449Z,3460
2018-04-10T11:20:58.193Z,3552
2018-04-10T11:21:57.933Z,3760
2018-04-10T11:22:57.934Z,3820
2018-04-10T11:23:58.449Z,4440
2018-04-10T11:24:58.443Z,4400
2018-04-10T11:25:57.933Z,4180
2018-04-10T11:26:57.929Z,4060
2018-04-10T11:27:58.444Z,4332
2018-04-10T11:28:58.442Z,5220
2018-04-10T11:29:58.205Z,5404
2018-04-10T11:30:57.933Z,4664
2018-04-10T11:31:58.187Z,4284
2018-04-10T11:32:58.187Z,4256
2018-04-10T11:33:57.928Z,3980
2018-04-10T11:34:58.443Z,3864
2018-04-10T11:35:58.453Z,3804
2018-04-10T11:36:58.187Z,3676
2018-04-10T11:37:58.230Z,3592
2018-04-10T11:38:58.190Z,3468
2018-04-10T11:39:58.451Z,3240
2018-04-10T11:40:58.443Z,3312
2018-04-10T11:41:58.451Z,3316
2018-04-10T11:42:58.194Z,3288
2018-04-10T11:43:58.189Z,3268
2018-04-10T11:44:57.674Z,3256
2018-04-10T11:45:58.445Z,3240
2018-04-10T11:46:58.448Z,3224
2018-04-10T11:47:58.189Z,3212
2018-04-10T11:48:58.447Z,3196
2018-04-10T11:49:57.931Z,3196
2018-04-10T11:50:58.187Z,3196
2018-04-10T11:51:58.445Z,3180
2018-04-10T11:52:58.447Z,3108
2018-04-10T11:53:58.448Z,2760
2018-04-10T11:54:58.446Z,3100
2018-04-10T11:55:58.186Z,2620
2018-04-10T11:56:58.187Z,3060
2018-04-10T11:57:58.187Z,2684
2018-04-10T11:58:57.929Z,3008
2018-04-10T11:59:58.185Z,3012
2018-04-10T12:00:58.440Z,2864
2018-04-10T12:01:58.195Z,3244
2018-04-10T12:02:58.442Z,3196
2018-04-10T12:03:58.183Z,3200
2018-04-10T12:04:58.450Z,3200
2018-04-10T12:05:58.184Z,3192
2018-04-10T12:06:58.454Z,3188
2018-04-10T12:07:58.436Z,3220
2018-04-10T12:08:58.183Z,3280
2018-04-10T12:09:57.937Z,3184
2018-04-10T12:10:57.924Z,3160
2018-04-10T12:11:58.438Z,3284
2018-04-10T12:12:58.434Z,3216
2018-04-10T12:13:58.198Z,3196
2018-04-10T12:14:58.179Z,3088
2018-04-10T12:15:58.439Z,3016
2018-04-10T12:16:58.185Z,2996
2018-04-10T12:17:58.179Z,2988
2018-04-10T12:18:57.935Z,2996
2018-04-10T12:19:58.183Z,3012
2018-04-10T12:20:58.179Z,3040
2018-04-10T12:21:58.178Z,3088
2018-04-10T12:22:57.920Z,3144
2018-04-10T12:23:58.438Z,3216
2018-04-10T12:24:58.434Z,3316
2018-04-10T12:25:57.924Z,3428
2018-04-10T12:26:58.431Z,3568
2018-04-10T12:27:58.179Z,3720
2018-04-10T12:28:58.182Z,3868
2018-04-10T12:29:57.919Z,3988
2018-04-10T12:30:58.433Z,4088
2018-04-10T12:31:58.431Z,4168
2018-04-10T12:32:58.177Z,4232
2018-04-10T12:33:58.429Z,4276
2018-04-10T12:34:57.919Z,4304
2018-04-10T12:35:57.916Z,4352
2018-04-10T12:36:58.433Z,4420
2018-04-10T12:37:58.434Z,4540
2018-04-10T12:38:58.183Z,4668
2018-04-10T12:39:58.173Z,4816
2018-04-10T12:40:58.172Z,4984
2018-04-10T12:41:58.175Z,5148
2018-04-10T12:42:58.176Z,5296
2018-04-10T12:43:58.668Z,5424
2018-04-10T12:44:58.171Z,5456
2018-04-10T12:45:58.168Z,5488
2018-04-10T12:46:58.168Z,5464
2018-04-10T12:47:58.168Z,5352
2018-04-10T12:48:57.915Z,5232
2018-04-10T12:49:58.175Z,5104
2018-04-10T12:50:58.424Z,4968
2018-04-10T12:51:58.170Z,4880
2018-04-10T12:52:58.174Z,4808
2018-04-10T12:53:58.167Z,4788
2018-04-10T12:54:57.914Z,4764
2018-04-10T12:55:58.166Z,4724
2018-04-10T12:56:58.430Z,4608
2018-04-10T12:57:58.172Z,4548
2018-04-10T12:58:58.166Z,4524
2018-04-10T12:59:58.166Z,4556
2018-04-10T13:00:58.169Z,4592
2018-04-10T13:01:57.907Z,4592
2018-04-10T13:02:58.424Z,4572
2018-04-10T13:03:57.907Z,4488
2018-04-10T13:04:58.415Z,4404
2018-04-10T13:05:57.903Z,4388
2018-04-10T13:06:58.418Z,4316
2018-04-10T13:07:58.159Z,4224
2018-04-10T13:08:58.414Z,4156
2018-04-10T13:09:57.648Z,4092
2018-04-10T13:10:57.904Z,4060
2018-04-10T13:11:58.159Z,4044
2018-04-10T13:12:58.419Z,4052
2018-04-10T13:13:58.425Z,4100
2018-04-10T13:14:58.153Z,4180
2018-04-10T13:15:58.157Z,4276
2018-04-10T13:16:58.413Z,4476
2018-04-10T13:17:58.159Z,4740
2018-04-10T13:18:58.154Z,4920
2018-04-10T13:19:57.901Z,5188
2018-04-10T13:20:58.411Z,5580
2018-04-10T13:21:58.408Z,5972
2018-04-10T13:22:57.895Z,6328
2018-04-10T13:23:58.152Z,6636
2018-04-10T13:24:58.403Z,6848
2018-04-10T13:25:58.401Z,6924
2018-04-10T13:26:57.633Z,6900
2018-04-10T13:27:58.143Z,6844
2018-04-10T13:28:58.144Z,6544
2018-04-10T13:29:58.400Z,6436
2018-04-10T13:30:58.143Z,6012
2018-04-10T13:31:58.398Z,5636
2018-04-10T13:32:58.405Z,5188
2018-04-10T13:33:58.397Z,4716
2018-04-10T13:34:58.140Z,4480
2018-04-10T13:35:58.398Z,4312
2018-04-10T13:36:58.397Z,4152
2018-04-10T13:37:57.888Z,3956
2018-04-10T13:38:58.145Z,3836
2018-04-10T13:39:58.398Z,3904
2018-04-10T13:40:58.395Z,3864
2018-04-10T13:41:58.389Z,3972
2018-04-10T13:42:58.398Z,3676
2018-04-10T13:43:58.393Z,3748
2018-04-10T13:44:58.390Z,4224